sensor_id;sensor_type;location;lat;lon;timestamp;P1;durP1;ratioP1;P2;durP2;ratioP2
41219;SDS011;26951;47.338;9.196;2023-07-28T00:01:03;3.72;;;2.42;;
41219;SDS011;26951;47.338;9.196;2023-07-28T00:03:47;2.60;;;1.90;;
41219;SDS011;26951;47.338;9.196;2023-07-28T00:06:31;3.15;;;2.30;;
41219;SDS011;26951;47.338;9.196;2023-07-28T00:09:15;2.20;;;1.80;;
41219;SDS011;26951;47.338;9.196;2023-07-28T00:12:00;3.47;;;1.95;;
41219;SDS011;26951;47.338;9.196;2023-07-28T00:14:44;4.43;;;2.50;;
41219;SDS011;26951;47.338;9.196;2023-07-28T00:17:28;4.50;;;2.00;;
41219;SDS011;26951;47.338;9.196;2023-07-28T00:20:13;3.17;;;2.47;;
41219;SDS011;26951;47.338;9.196;2023-07-28T00:22:57;2.50;;;2.05;;
41219;SDS011;26951;47.338;9.196;2023-07-28T00:25:42;2.70;;;2.20;;
41219;SDS011;26951;47.338;9.196;2023-07-28T00:28:26;2.17;;;1.98;;
41219;SDS011;26951;47.338;9.196;2023-07-28T00:31:10;3.97;;;2.13;;
41219;SDS011;26951;47.338;9.196;2023-07-28T00:33:54;2.75;;;2.10;;
41219;SDS011;26951;47.338;9.196;2023-07-28T00:36:39;2.80;;;2.10;;
41219;SDS011;26951;47.338;9.196;2023-07-28T00:39:24;3.78;;;2.05;;
41219;SDS011;26951;47.338;9.196;2023-07-28T00:42:08;3.15;;;2.13;;
41219;SDS011;26951;47.338;9.196;2023-07-28T00:44:53;3.35;;;2.35;;
41219;SDS011;26951;47.338;9.196;2023-07-28T00:47:37;3.05;;;2.13;;
41219;SDS011;26951;47.338;9.196;2023-07-28T00:50:21;3.25;;;2.55;;
41219;SDS011;26951;47.338;9.196;2023-07-28T00:53:06;2.60;;;2.07;;
41219;SDS011;26951;47.338;9.196;2023-07-28T00:55:51;3.35;;;2.33;;
41219;SDS011;26951;47.338;9.196;2023-07-28T00:58:35;3.05;;;2.40;;
41219;SDS011;26951;47.338;9.196;2023-07-28T01:04:48;2.90;;;2.20;;
41219;SDS011;26951;47.338;9.196;2023-07-28T01:07:36;2.40;;;2.00;;
41219;SDS011;26951;47.338;9.196;2023-07-28T01:10:36;3.17;;;2.05;;
41219;SDS011;26951;47.338;9.196;2023-07-28T01:13:22;3.17;;;2.17;;
41219;SDS011;26951;47.338;9.196;2023-07-28T01:16:07;2.97;;;2.05;;
41219;SDS011;26951;47.338;9.196;2023-07-28T01:18:52;4.28;;;2.20;;
41219;SDS011;26951;47.338;9.196;2023-07-28T01:21:36;2.38;;;1.85;;
41219;SDS011;26951;47.338;9.196;2023-07-28T01:24:30;2.13;;;1.85;;
41219;SDS011;26951;47.338;9.196;2023-07-28T01:27:40;2.92;;;2.63;;
41219;SDS011;26951;47.338;9.196;2023-07-28T01:30:27;2.78;;;2.28;;
41219;SDS011;26951;47.338;9.196;2023-07-28T01:33:12;6.25;;;2.35;;
41219;SDS011;26951;47.338;9.196;2023-07-28T01:35:56;2.72;;;1.98;;
41219;SDS011;26951;47.338;9.196;2023-07-28T01:41:26;2.75;;;1.92;;
41219;SDS011;26951;47.338;9.196;2023-07-28T01:44:10;3.05;;;2.40;;
41219;SDS011;26951;47.338;9.196;2023-07-28T01:46:55;3.00;;;2.20;;
41219;SDS011;26951;47.338;9.196;2023-07-28T01:49:39;2.88;;;2.13;;
41219;SDS011;26951;47.338;9.196;2023-07-28T01:52:23;2.55;;;2.30;;
41219;SDS011;26951;47.338;9.196;2023-07-28T01:55:07;2.58;;;1.90;;
41219;SDS011;26951;47.338;9.196;2023-07-28T01:57:58;2.38;;;2.08;;
41219;SDS011;26951;47.338;9.196;2023-07-28T02:00:43;5.00;;;2.20;;
41219;SDS011;26951;47.338;9.196;2023-07-28T02:03:30;3.08;;;1.90;;
41219;SDS011;26951;47.338;9.196;2023-07-28T02:06:14;3.65;;;1.98;;
41219;SDS011;26951;47.338;9.196;2023-07-28T02:08:58;2.97;;;2.13;;
41219;SDS011;26951;47.338;9.196;2023-07-28T02:11:42;2.20;;;1.63;;
41219;SDS011;26951;47.338;9.196;2023-07-28T02:14:26;3.00;;;2.30;;
41219;SDS011;26951;47.338;9.196;2023-07-28T02:17:10;2.60;;;2.08;;
41219;SDS011;26951;47.338;9.196;2023-07-28T02:19:54;2.63;;;2.10;;
41219;SDS011;26951;47.338;9.196;2023-07-28T02:22:39;2.67;;;1.90;;
41219;SDS011;26951;47.338;9.196;2023-07-28T02:25:23;3.10;;;2.13;;
41219;SDS011;26951;47.338;9.196;2023-07-28T02:28:09;2.08;;;1.80;;
41219;SDS011;26951;47.338;9.196;2023-07-28T02:30:54;3.95;;;1.80;;
41219;SDS011;26951;47.338;9.196;2023-07-28T02:33:38;1.90;;;1.58;;
41219;SDS011;26951;47.338;9.196;2023-07-28T02:36:22;3.03;;;1.70;;
41219;SDS011;26951;47.338;9.196;2023-07-28T02:39:06;3.80;;;2.00;;
41219;SDS011;26951;47.338;9.196;2023-07-28T02:41:50;2.20;;;2.00;;
41219;SDS011;26951;47.338;9.196;2023-07-28T02:44:34;2.03;;;1.83;;
41219;SDS011;26951;47.338;9.196;2023-07-28T02:47:18;2.28;;;1.63;;
41219;SDS011;26951;47.338;9.196;2023-07-28T02:50:02;2.95;;;1.90;;
41219;SDS011;26951;47.338;9.196;2023-07-28T02:52:47;2.67;;;1.98;;
41219;SDS011;26951;47.338;9.196;2023-07-28T02:55:31;2.35;;;1.75;;
41219;SDS011;26951;47.338;9.196;2023-07-28T02:58:15;2.20;;;1.58;;
41219;SDS011;26951;47.338;9.196;2023-07-28T03:01:00;2.20;;;1.80;;
41219;SDS011;26951;47.338;9.196;2023-07-28T03:03:44;4.65;;;2.08;;
41219;SDS011;26951;47.338;9.196;2023-07-28T03:06:31;1.70;;;1.50;;
41219;SDS011;26951;47.338;9.196;2023-07-28T03:09:15;2.33;;;1.90;;
41219;SDS011;26951;47.338;9.196;2023-07-28T03:11:59;2.70;;;2.03;;
41219;SDS011;26951;47.338;9.196;2023-07-28T03:14:43;1.70;;;1.60;;
41219;SDS011;26951;47.338;9.196;2023-07-28T03:17:28;3.20;;;1.65;;
41219;SDS011;26951;47.338;9.196;2023-07-28T03:22:57;2.40;;;1.90;;
41219;SDS011;26951;47.338;9.196;2023-07-28T03:25:42;4.05;;;2.10;;
41219;SDS011;26951;47.338;9.196;2023-07-28T03:28:26;3.65;;;2.00;;
41219;SDS011;26951;47.338;9.196;2023-07-28T03:31:10;3.88;;;2.30;;
41219;SDS011;26951;47.338;9.196;2023-07-28T03:33:54;2.97;;;2.00;;
41219;SDS011;26951;47.338;9.196;2023-07-28T03:36:38;2.58;;;2.10;;
41219;SDS011;26951;47.338;9.196;2023-07-28T03:39:22;2.25;;;1.77;;
41219;SDS011;26951;47.338;9.196;2023-07-28T03:42:06;2.97;;;2.40;;
41219;SDS011;26951;47.338;9.196;2023-07-28T03:44:51;2.30;;;1.98;;
41219;SDS011;26951;47.338;9.196;2023-07-28T03:47:35;2.30;;;2.05;;
41219;SDS011;26951;47.338;9.196;2023-07-28T03:50:20;2.72;;;2.20;;
41219;SDS011;26951;47.338;9.196;2023-07-28T03:53:05;3.20;;;2.08;;
41219;SDS011;26951;47.338;9.196;2023-07-28T03:55:50;3.17;;;2.15;;
41219;SDS011;26951;47.338;9.196;2023-07-28T03:58:34;3.63;;;2.20;;
41219;SDS011;26951;47.338;9.196;2023-07-28T04:01:18;2.47;;;2.13;;
41219;SDS011;26951;47.338;9.196;2023-07-28T04:04:02;2.78;;;2.20;;
41219;SDS011;26951;47.338;9.196;2023-07-28T04:06:48;2.22;;;2.00;;
41219;SDS011;26951;47.338;9.196;2023-07-28T04:09:34;2.78;;;2.22;;
41219;SDS011;26951;47.338;9.196;2023-07-28T04:12:18;2.85;;;2.15;;
41219;SDS011;26951;47.338;9.196;2023-07-28T04:15:02;4.00;;;2.33;;
41219;SDS011;26951;47.338;9.196;2023-07-28T04:17:46;2.67;;;2.20;;
41219;SDS011;26951;47.338;9.196;2023-07-28T04:20:30;3.28;;;2.00;;
41219;SDS011;26951;47.338;9.196;2023-07-28T04:23:14;2.58;;;2.38;;
41219;SDS011;26951;47.338;9.196;2023-07-28T04:25:58;2.33;;;1.90;;
41219;SDS011;26951;47.338;9.196;2023-07-28T04:28:42;3.42;;;2.10;;
41219;SDS011;26951;47.338;9.196;2023-07-28T04:31:27;3.17;;;2.07;;
41219;SDS011;26951;47.338;9.196;2023-07-28T04:34:11;3.45;;;2.30;;
41219;SDS011;26951;47.338;9.196;2023-07-28T04:36:55;2.72;;;2.15;;
41219;SDS011;26951;47.338;9.196;2023-07-28T04:39:39;3.80;;;2.53;;
41219;SDS011;26951;47.338;9.196;2023-07-28T04:42:23;2.45;;;2.05;;
41219;SDS011;26951;47.338;9.196;2023-07-28T04:45:07;2.83;;;2.10;;
41219;SDS011;26951;47.338;9.196;2023-07-28T04:47:52;2.72;;;2.08;;
41219;SDS011;26951;47.338;9.196;2023-07-28T04:50:36;3.43;;;1.90;;
41219;SDS011;26951;47.338;9.196;2023-07-28T04:53:21;2.30;;;2.10;;
41219;SDS011;26951;47.338;9.196;2023-07-28T04:56:05;2.83;;;1.73;;
41219;SDS011;26951;47.338;9.196;2023-07-28T04:58:49;2.78;;;2.00;;
41219;SDS011;26951;47.338;9.196;2023-07-28T05:01:33;3.97;;;2.03;;
41219;SDS011;26951;47.338;9.196;2023-07-28T05:04:17;2.97;;;2.63;;
41219;SDS011;26951;47.338;9.196;2023-07-28T05:07:03;2.78;;;2.25;;
41219;SDS011;26951;47.338;9.196;2023-07-28T05:09:48;3.05;;;1.95;;
41219;SDS011;26951;47.338;9.196;2023-07-28T05:12:32;3.38;;;2.55;;
41219;SDS011;26951;47.338;9.196;2023-07-28T05:15:17;3.20;;;2.20;;
41219;SDS011;26951;47.338;9.196;2023-07-28T05:18:01;2.25;;;2.05;;
41219;SDS011;26951;47.338;9.196;2023-07-28T05:20:45;2.53;;;2.20;;
41219;SDS011;26951;47.338;9.196;2023-07-28T05:23:30;2.92;;;2.30;;
41219;SDS011;26951;47.338;9.196;2023-07-28T05:26:14;2.50;;;2.30;;
41219;SDS011;26951;47.338;9.196;2023-07-28T05:28:58;4.75;;;2.53;;
41219;SDS011;26951;47.338;9.196;2023-07-28T05:31:42;4.63;;;2.60;;
41219;SDS011;26951;47.338;9.196;2023-07-28T05:34:26;2.90;;;2.47;;
41219;SDS011;26951;47.338;9.196;2023-07-28T05:37:11;2.50;;;2.20;;
41219;SDS011;26951;47.338;9.196;2023-07-28T05:39:55;3.40;;;2.50;;
41219;SDS011;26951;47.338;9.196;2023-07-28T05:42:39;3.38;;;2.42;;
41219;SDS011;26951;47.338;9.196;2023-07-28T05:45:23;2.75;;;2.03;;
41219;SDS011;26951;47.338;9.196;2023-07-28T05:48:07;2.70;;;2.28;;
41219;SDS011;26951;47.338;9.196;2023-07-28T05:50:51;4.20;;;2.45;;
41219;SDS011;26951;47.338;9.196;2023-07-28T05:53:37;3.03;;;2.40;;
41219;SDS011;26951;47.338;9.196;2023-07-28T05:56:21;3.00;;;2.25;;
41219;SDS011;26951;47.338;9.196;2023-07-28T05:59:05;2.60;;;2.40;;
41219;SDS011;26951;47.338;9.196;2023-07-28T06:01:49;2.97;;;2.28;;
41219;SDS011;26951;47.338;9.196;2023-07-28T06:04:33;6.93;;;3.30;;
41219;SDS011;26951;47.338;9.196;2023-07-28T06:07:17;4.03;;;2.40;;
41219;SDS011;26951;47.338;9.196;2023-07-28T06:10:01;2.13;;;1.92;;
41219;SDS011;26951;47.338;9.196;2023-07-28T06:12:46;3.55;;;1.90;;
41219;SDS011;26951;47.338;9.196;2023-07-28T06:15:30;5.30;;;2.50;;
41219;SDS011;26951;47.338;9.196;2023-07-28T06:18:14;3.72;;;2.58;;
41219;SDS011;26951;47.338;9.196;2023-07-28T06:21:00;3.33;;;2.20;;
41219;SDS011;26951;47.338;9.196;2023-07-28T06:23:44;2.30;;;1.88;;
41219;SDS011;26951;47.338;9.196;2023-07-28T06:26:29;2.20;;;2.00;;
41219;SDS011;26951;47.338;9.196;2023-07-28T06:29:13;2.95;;;2.25;;
41219;SDS011;26951;47.338;9.196;2023-07-28T06:31:57;2.95;;;2.28;;
41219;SDS011;26951;47.338;9.196;2023-07-28T06:34:41;3.10;;;2.55;;
41219;SDS011;26951;47.338;9.196;2023-07-28T06:37:25;2.47;;;2.25;;
41219;SDS011;26951;47.338;9.196;2023-07-28T06:40:10;5.05;;;2.45;;
41219;SDS011;26951;47.338;9.196;2023-07-28T06:42:54;4.05;;;2.00;;
41219;SDS011;26951;47.338;9.196;2023-07-28T06:45:38;2.47;;;2.25;;
41219;SDS011;26951;47.338;9.196;2023-07-28T06:48:22;4.38;;;2.25;;
41219;SDS011;26951;47.338;9.196;2023-07-28T06:51:06;2.83;;;2.30;;
41219;SDS011;26951;47.338;9.196;2023-07-28T06:53:51;3.17;;;2.20;;
41219;SDS011;26951;47.338;9.196;2023-07-28T06:56:35;2.50;;;2.30;;
41219;SDS011;26951;47.338;9.196;2023-07-28T06:59:19;4.60;;;2.60;;
41219;SDS011;26951;47.338;9.196;2023-07-28T07:02:03;3.25;;;2.80;;
41219;SDS011;26951;47.338;9.196;2023-07-28T07:04:49;3.53;;;2.20;;
41219;SDS011;26951;47.338;9.196;2023-07-28T07:07:33;2.47;;;2.20;;
41219;SDS011;26951;47.338;9.196;2023-07-28T07:10:18;2.83;;;2.28;;
41219;SDS011;26951;47.338;9.196;2023-07-28T07:13:02;3.00;;;2.53;;
41219;SDS011;26951;47.338;9.196;2023-07-28T07:15:46;2.25;;;1.90;;
41219;SDS011;26951;47.338;9.196;2023-07-28T07:18:30;2.45;;;2.17;;
41219;SDS011;26951;47.338;9.196;2023-07-28T07:21:14;2.42;;;2.22;;
41219;SDS011;26951;47.338;9.196;2023-07-28T07:23:58;3.75;;;2.05;;
41219;SDS011;26951;47.338;9.196;2023-07-28T07:26:42;2.78;;;2.33;;
41219;SDS011;26951;47.338;9.196;2023-07-28T07:29:26;10.52;;;3.22;;
41219;SDS011;26951;47.338;9.196;2023-07-28T07:32:11;2.40;;;2.13;;
41219;SDS011;26951;47.338;9.196;2023-07-28T07:34:55;3.22;;;2.75;;
41219;SDS011;26951;47.338;9.196;2023-07-28T07:37:39;3.57;;;2.67;;
41219;SDS011;26951;47.338;9.196;2023-07-28T07:40:23;4.60;;;2.33;;
41219;SDS011;26951;47.338;9.196;2023-07-28T07:43:08;3.10;;;2.33;;
41219;SDS011;26951;47.338;9.196;2023-07-28T07:45:52;2.40;;;2.20;;
41219;SDS011;26951;47.338;9.196;2023-07-28T07:48:38;2.90;;;1.92;;
41219;SDS011;26951;47.338;9.196;2023-07-28T07:51:22;2.83;;;2.30;;
41219;SDS011;26951;47.338;9.196;2023-07-28T07:54:06;2.53;;;2.10;;
41219;SDS011;26951;47.338;9.196;2023-07-28T07:56:51;3.63;;;2.80;;
41219;SDS011;26951;47.338;9.196;2023-07-28T07:59:35;3.47;;;2.15;;
41219;SDS011;26951;47.338;9.196;2023-07-28T08:02:19;2.85;;;2.40;;
41219;SDS011;26951;47.338;9.196;2023-07-28T08:05:03;2.58;;;2.30;;
41219;SDS011;26951;47.338;9.196;2023-07-28T08:07:47;2.97;;;2.30;;
41219;SDS011;26951;47.338;9.196;2023-07-28T08:10:32;4.18;;;2.33;;
41219;SDS011;26951;47.338;9.196;2023-07-28T08:13:16;2.80;;;2.10;;
41219;SDS011;26951;47.338;9.196;2023-07-28T08:16:01;2.95;;;1.98;;
41219;SDS011;26951;47.338;9.196;2023-07-28T08:18:45;4.63;;;2.63;;
41219;SDS011;26951;47.338;9.196;2023-07-28T08:21:30;2.67;;;2.47;;
41219;SDS011;26951;47.338;9.196;2023-07-28T08:24:20;3.30;;;2.80;;
41219;SDS011;26951;47.338;9.196;2023-07-28T08:27:04;2.60;;;2.40;;
41219;SDS011;26951;47.338;9.196;2023-07-28T08:29:49;3.35;;;2.55;;
41219;SDS011;26951;47.338;9.196;2023-07-28T08:32:33;2.78;;;2.42;;
41219;SDS011;26951;47.338;9.196;2023-07-28T08:35:17;4.35;;;2.30;;
41219;SDS011;26951;47.338;9.196;2023-07-28T08:38:01;2.30;;;2.10;;
41219;SDS011;26951;47.338;9.196;2023-07-28T08:40:46;3.38;;;2.28;;
41219;SDS011;26951;47.338;9.196;2023-07-28T08:43:31;2.25;;;2.05;;
41219;SDS011;26951;47.338;9.196;2023-07-28T08:46:15;3.45;;;2.60;;
41219;SDS011;26951;47.338;9.196;2023-07-28T08:49:00;3.17;;;2.33;;
41219;SDS011;26951;47.338;9.196;2023-07-28T08:51:49;2.28;;;2.08;;
41219;SDS011;26951;47.338;9.196;2023-07-28T08:54:33;4.55;;;2.28;;
41219;SDS011;26951;47.338;9.196;2023-07-28T08:57:18;3.65;;;2.25;;
41219;SDS011;26951;47.338;9.196;2023-07-28T09:00:06;3.13;;;2.30;;
41219;SDS011;26951;47.338;9.196;2023-07-28T09:02:57;2.97;;;2.22;;
41219;SDS011;26951;47.338;9.196;2023-07-28T09:05:41;4.25;;;2.55;;
41219;SDS011;26951;47.338;9.196;2023-07-28T09:08:31;3.15;;;2.33;;
41219;SDS011;26951;47.338;9.196;2023-07-28T09:11:15;3.80;;;2.40;;
41219;SDS011;26951;47.338;9.196;2023-07-28T09:14:00;3.35;;;2.33;;
41219;SDS011;26951;47.338;9.196;2023-07-28T09:16:46;3.72;;;2.20;;
41219;SDS011;26951;47.338;9.196;2023-07-28T09:19:30;3.42;;;2.20;;
41219;SDS011;26951;47.338;9.196;2023-07-28T09:22:15;3.97;;;2.63;;
41219;SDS011;26951;47.338;9.196;2023-07-28T09:24:59;3.45;;;2.67;;
41219;SDS011;26951;47.338;9.196;2023-07-28T09:27:58;2.08;;;1.88;;
41219;SDS011;26951;47.338;9.196;2023-07-28T09:30:47;3.30;;;2.65;;
41219;SDS011;26951;47.338;9.196;2023-07-28T09:33:33;4.13;;;2.70;;
41219;SDS011;26951;47.338;9.196;2023-07-28T09:36:18;2.67;;;2.33;;
41219;SDS011;26951;47.338;9.196;2023-07-28T09:39:06;3.20;;;2.45;;
41219;SDS011;26951;47.338;9.196;2023-07-28T09:41:54;3.00;;;2.40;;
41219;SDS011;26951;47.338;9.196;2023-07-28T09:44:41;2.90;;;2.50;;
41219;SDS011;26951;47.338;9.196;2023-07-28T09:47:26;5.20;;;2.40;;
41219;SDS011;26951;47.338;9.196;2023-07-28T09:50:16;2.45;;;2.15;;
41219;SDS011;26951;47.338;9.196;2023-07-28T09:53:02;2.67;;;2.28;;
41219;SDS011;26951;47.338;9.196;2023-07-28T09:55:46;2.45;;;2.25;;
41219;SDS011;26951;47.338;9.196;2023-07-28T09:58:33;2.60;;;2.40;;
41219;SDS011;26951;47.338;9.196;2023-07-28T10:01:23;2.97;;;2.17;;
41219;SDS011;26951;47.338;9.196;2023-07-28T10:04:07;2.75;;;2.50;;
41219;SDS011;26951;47.338;9.196;2023-07-28T10:06:52;4.17;;;2.50;;
41219;SDS011;26951;47.338;9.196;2023-07-28T10:09:40;3.65;;;3.30;;
41219;SDS011;26951;47.338;9.196;2023-07-28T10:12:25;2.97;;;2.72;;
41219;SDS011;26951;47.338;9.196;2023-07-28T10:15:14;2.85;;;2.42;;
41219;SDS011;26951;47.338;9.196;2023-07-28T10:18:03;3.22;;;2.90;;
41219;SDS011;26951;47.338;9.196;2023-07-28T10:20:50;3.92;;;2.72;;
41219;SDS011;26951;47.338;9.196;2023-07-28T10:23:34;2.70;;;2.50;;
41219;SDS011;26951;47.338;9.196;2023-07-28T10:26:32;3.28;;;2.72;;
41219;SDS011;26951;47.338;9.196;2023-07-28T10:29:19;3.05;;;2.75;;
41219;SDS011;26951;47.338;9.196;2023-07-28T10:32:04;3.65;;;2.50;;
41219;SDS011;26951;47.338;9.196;2023-07-28T10:34:58;2.95;;;2.42;;
41219;SDS011;26951;47.338;9.196;2023-07-28T10:37:44;3.65;;;2.88;;
41219;SDS011;26951;47.338;9.196;2023-07-28T10:40:32;2.60;;;2.40;;
41219;SDS011;26951;47.338;9.196;2023-07-28T10:43:18;3.00;;;2.60;;
41219;SDS011;26951;47.338;9.196;2023-07-28T10:46:03;2.70;;;2.27;;
41219;SDS011;26951;47.338;9.196;2023-07-28T10:48:49;3.03;;;2.65;;
41219;SDS011;26951;47.338;9.196;2023-07-28T10:51:34;3.47;;;2.95;;
41219;SDS011;26951;47.338;9.196;2023-07-28T10:57:04;3.95;;;2.70;;
41219;SDS011;26951;47.338;9.196;2023-07-28T10:59:50;3.75;;;2.47;;
41219;SDS011;26951;47.338;9.196;2023-07-28T11:05:23;3.53;;;3.10;;
41219;SDS011;26951;47.338;9.196;2023-07-28T11:08:11;3.67;;;3.30;;
41219;SDS011;26951;47.338;9.196;2023-07-28T11:10:55;3.53;;;2.90;;
41219;SDS011;26951;47.338;9.196;2023-07-28T11:13:39;3.45;;;2.88;;
41219;SDS011;26951;47.338;9.196;2023-07-28T11:16:23;3.72;;;3.10;;
41219;SDS011;26951;47.338;9.196;2023-07-28T11:21:54;3.45;;;3.08;;
41219;SDS011;26951;47.338;9.196;2023-07-28T11:24:39;3.72;;;2.90;;
41219;SDS011;26951;47.338;9.196;2023-07-28T11:27:24;3.73;;;2.93;;
41219;SDS011;26951;47.338;9.196;2023-07-28T11:30:08;4.00;;;2.90;;
41219;SDS011;26951;47.338;9.196;2023-07-28T11:32:53;4.70;;;3.00;;
41219;SDS011;26951;47.338;9.196;2023-07-28T11:35:37;3.38;;;3.03;;
41219;SDS011;26951;47.338;9.196;2023-07-28T11:38:23;2.80;;;2.50;;
41219;SDS011;26951;47.338;9.196;2023-07-28T11:41:07;4.07;;;2.65;;
41219;SDS011;26951;47.338;9.196;2023-07-28T11:43:52;4.35;;;2.80;;
41219;SDS011;26951;47.338;9.196;2023-07-28T11:46:38;2.80;;;2.50;;
41219;SDS011;26951;47.338;9.196;2023-07-28T11:49:24;3.47;;;2.83;;
41219;SDS011;26951;47.338;9.196;2023-07-28T11:54:54;3.25;;;2.95;;
41219;SDS011;26951;47.338;9.196;2023-07-28T11:57:39;5.10;;;2.83;;
41219;SDS011;26951;47.338;9.196;2023-07-28T12:00:36;2.93;;;2.53;;
41219;SDS011;26951;47.338;9.196;2023-07-28T12:03:29;3.55;;;2.80;;
41219;SDS011;26951;47.338;9.196;2023-07-28T12:06:13;3.65;;;2.88;;
41219;SDS011;26951;47.338;9.196;2023-07-28T12:09:04;3.93;;;3.40;;
41219;SDS011;26951;47.338;9.196;2023-07-28T12:11:52;3.22;;;2.92;;
41219;SDS011;26951;47.338;9.196;2023-07-28T12:14:36;3.70;;;2.72;;
41219;SDS011;26951;47.338;9.196;2023-07-28T12:17:22;3.67;;;2.90;;
41219;SDS011;26951;47.338;9.196;2023-07-28T12:20:09;2.90;;;2.60;;
41219;SDS011;26951;47.338;9.196;2023-07-28T12:22:59;3.80;;;2.63;;
41219;SDS011;26951;47.338;9.196;2023-07-28T12:25:43;5.33;;;2.70;;
41219;SDS011;26951;47.338;9.196;2023-07-28T12:28:28;3.70;;;2.75;;
41219;SDS011;26951;47.338;9.196;2023-07-28T12:31:12;3.85;;;2.97;;
41219;SDS011;26951;47.338;9.196;2023-07-28T12:33:57;3.20;;;2.90;;
41219;SDS011;26951;47.338;9.196;2023-07-28T12:36:41;4.13;;;3.10;;
41219;SDS011;26951;47.338;9.196;2023-07-28T12:39:25;3.63;;;2.93;;
41219;SDS011;26951;47.338;9.196;2023-07-28T12:42:10;3.20;;;2.88;;
41219;SDS011;26951;47.338;9.196;2023-07-28T12:44:54;3.95;;;2.70;;
41219;SDS011;26951;47.338;9.196;2023-07-28T12:47:39;3.20;;;2.90;;
41219;SDS011;26951;47.338;9.196;2023-07-28T12:50:23;4.18;;;3.00;;
41219;SDS011;26951;47.338;9.196;2023-07-28T12:53:07;3.00;;;2.63;;
41219;SDS011;26951;47.338;9.196;2023-07-28T12:55:52;3.33;;;2.70;;
41219;SDS011;26951;47.338;9.196;2023-07-28T12:58:36;3.27;;;2.80;;
41219;SDS011;26951;47.338;9.196;2023-07-28T13:01:20;4.23;;;3.30;;
41219;SDS011;26951;47.338;9.196;2023-07-28T13:04:04;4.13;;;3.10;;
41219;SDS011;26951;47.338;9.196;2023-07-28T13:06:48;4.50;;;2.90;;
41219;SDS011;26951;47.338;9.196;2023-07-28T13:09:33;3.75;;;3.33;;
41219;SDS011;26951;47.338;9.196;2023-07-28T13:12:17;3.13;;;2.50;;
41219;SDS011;26951;47.338;9.196;2023-07-28T13:15:01;3.63;;;3.27;;
41219;SDS011;26951;47.338;9.196;2023-07-28T13:17:46;3.00;;;2.70;;
41219;SDS011;26951;47.338;9.196;2023-07-28T13:20:31;5.13;;;2.92;;
41219;SDS011;26951;47.338;9.196;2023-07-28T13:23:15;3.55;;;2.95;;
41219;SDS011;26951;47.338;9.196;2023-07-28T13:25:59;3.13;;;2.83;;
41219;SDS011;26951;47.338;9.196;2023-07-28T13:28:43;3.40;;;3.10;;
41219;SDS011;26951;47.338;9.196;2023-07-28T13:31:30;4.35;;;2.97;;
41219;SDS011;26951;47.338;9.196;2023-07-28T13:34:14;4.70;;;4.15;;
41219;SDS011;26951;47.338;9.196;2023-07-28T13:36:59;3.08;;;2.58;;
41219;SDS011;26951;47.338;9.196;2023-07-28T13:39:43;3.13;;;2.70;;
41219;SDS011;26951;47.338;9.196;2023-07-28T13:42:27;3.93;;;2.73;;
41219;SDS011;26951;47.338;9.196;2023-07-28T13:45:11;3.40;;;2.83;;
41219;SDS011;26951;47.338;9.196;2023-07-28T13:47:55;3.90;;;3.08;;
41219;SDS011;26951;47.338;9.196;2023-07-28T13:50:39;3.93;;;3.17;;
41219;SDS011;26951;47.338;9.196;2023-07-28T13:53:23;4.00;;;3.00;;
41219;SDS011;26951;47.338;9.196;2023-07-28T13:56:08;3.72;;;3.10;;
41219;SDS011;26951;47.338;9.196;2023-07-28T13:58:52;3.92;;;3.40;;
41219;SDS011;26951;47.338;9.196;2023-07-28T14:01:36;3.20;;;2.90;;
41219;SDS011;26951;47.338;9.196;2023-07-28T14:04:20;3.27;;;2.97;;
41219;SDS011;26951;47.338;9.196;2023-07-28T14:07:05;3.50;;;3.20;;
41219;SDS011;26951;47.338;9.196;2023-07-28T14:09:49;3.13;;;2.83;;
41219;SDS011;26951;47.338;9.196;2023-07-28T14:12:33;4.60;;;3.67;;
41219;SDS011;26951;47.338;9.196;2023-07-28T14:15:17;2.87;;;2.67;;
41219;SDS011;26951;47.338;9.196;2023-07-28T14:18:01;3.90;;;3.20;;
41219;SDS011;26951;47.338;9.196;2023-07-28T14:20:45;3.15;;;2.80;;
41219;SDS011;26951;47.338;9.196;2023-07-28T14:23:29;5.38;;;3.30;;
41219;SDS011;26951;47.338;9.196;2023-07-28T14:26:13;4.45;;;3.42;;
41219;SDS011;26951;47.338;9.196;2023-07-28T14:28:58;4.45;;;3.28;;
41219;SDS011;26951;47.338;9.196;2023-07-28T14:31:42;3.77;;;3.10;;
41219;SDS011;26951;47.338;9.196;2023-07-28T14:34:26;3.60;;;2.92;;
41219;SDS011;26951;47.338;9.196;2023-07-28T14:37:10;3.17;;;2.85;;
41219;SDS011;26951;47.338;9.196;2023-07-28T14:39:55;4.15;;;2.88;;
41219;SDS011;26951;47.338;9.196;2023-07-28T14:42:39;3.80;;;3.10;;
41219;SDS011;26951;47.338;9.196;2023-07-28T14:45:23;4.72;;;3.72;;
41219;SDS011;26951;47.338;9.196;2023-07-28T14:48:07;3.00;;;2.63;;
41219;SDS011;26951;47.338;9.196;2023-07-28T14:50:51;6.13;;;3.77;;
41219;SDS011;26951;47.338;9.196;2023-07-28T14:53:36;3.53;;;2.70;;
41219;SDS011;26951;47.338;9.196;2023-07-28T14:56:21;3.47;;;2.72;;
41219;SDS011;26951;47.338;9.196;2023-07-28T14:59:08;4.05;;;3.22;;
41219;SDS011;26951;47.338;9.196;2023-07-28T15:01:53;3.53;;;3.13;;
41219;SDS011;26951;47.338;9.196;2023-07-28T15:04:37;3.17;;;2.88;;
41219;SDS011;26951;47.338;9.196;2023-07-28T15:07:22;3.22;;;2.92;;
41219;SDS011;26951;47.338;9.196;2023-07-28T15:10:06;4.55;;;3.28;;
41219;SDS011;26951;47.338;9.196;2023-07-28T15:12:50;3.78;;;2.88;;
41219;SDS011;26951;47.338;9.196;2023-07-28T15:15:34;4.18;;;3.50;;
41219;SDS011;26951;47.338;9.196;2023-07-28T15:18:19;5.63;;;3.58;;
41219;SDS011;26951;47.338;9.196;2023-07-28T15:21:03;3.87;;;3.40;;
41219;SDS011;26951;47.338;9.196;2023-07-28T15:23:52;3.78;;;3.33;;
41219;SDS011;26951;47.338;9.196;2023-07-28T15:26:38;3.47;;;3.15;;
41219;SDS011;26951;47.338;9.196;2023-07-28T15:29:22;4.65;;;3.10;;
41219;SDS011;26951;47.338;9.196;2023-07-28T15:32:06;4.73;;;3.50;;
41219;SDS011;26951;47.338;9.196;2023-07-28T15:34:50;4.03;;;3.40;;
41219;SDS011;26951;47.338;9.196;2023-07-28T15:37:35;3.60;;;3.25;;
41219;SDS011;26951;47.338;9.196;2023-07-28T15:40:19;3.22;;;2.90;;
41219;SDS011;26951;47.338;9.196;2023-07-28T15:43:03;3.78;;;3.20;;
41219;SDS011;26951;47.338;9.196;2023-07-28T15:45:47;3.70;;;3.33;;
41219;SDS011;26951;47.338;9.196;2023-07-28T15:48:35;6.13;;;3.53;;
41219;SDS011;26951;47.338;9.196;2023-07-28T15:51:20;4.03;;;3.50;;
41219;SDS011;26951;47.338;9.196;2023-07-28T15:54:04;3.97;;;3.58;;
41219;SDS011;26951;47.338;9.196;2023-07-28T15:56:49;4.50;;;3.60;;
41219;SDS011;26951;47.338;9.196;2023-07-28T15:59:33;3.63;;;3.28;;
41219;SDS011;26951;47.338;9.196;2023-07-28T16:02:18;3.55;;;3.10;;
41219;SDS011;26951;47.338;9.196;2023-07-28T16:05:02;3.28;;;2.92;;
41219;SDS011;26951;47.338;9.196;2023-07-28T16:07:47;3.63;;;3.28;;
41219;SDS011;26951;47.338;9.196;2023-07-28T16:10:31;5.28;;;3.80;;
41219;SDS011;26951;47.338;9.196;2023-07-28T16:13:15;5.00;;;3.97;;
41219;SDS011;26951;47.338;9.196;2023-07-28T16:15:59;4.63;;;3.47;;
41219;SDS011;26951;47.338;9.196;2023-07-28T16:18:43;4.18;;;3.40;;
41219;SDS011;26951;47.338;9.196;2023-07-28T16:21:27;4.53;;;3.72;;
41219;SDS011;26951;47.338;9.196;2023-07-28T16:24:11;3.90;;;3.40;;
41219;SDS011;26951;47.338;9.196;2023-07-28T16:26:56;4.00;;;3.60;;
41219;SDS011;26951;47.338;9.196;2023-07-28T16:29:40;3.40;;;2.92;;
41219;SDS011;26951;47.338;9.196;2023-07-28T16:32:25;4.43;;;2.95;;
41219;SDS011;26951;47.338;9.196;2023-07-28T16:35:09;3.75;;;3.30;;
41219;SDS011;26951;47.338;9.196;2023-07-28T16:37:53;3.17;;;2.88;;
41219;SDS011;26951;47.338;9.196;2023-07-28T16:40:37;4.57;;;3.22;;
41219;SDS011;26951;47.338;9.196;2023-07-28T16:43:21;3.97;;;3.22;;
41219;SDS011;26951;47.338;9.196;2023-07-28T16:46:06;3.65;;;2.83;;
41219;SDS011;26951;47.338;9.196;2023-07-28T16:51:36;4.43;;;3.03;;
41219;SDS011;26951;47.338;9.196;2023-07-28T16:54:21;4.88;;;3.15;;
41219;SDS011;26951;47.338;9.196;2023-07-28T16:57:05;4.32;;;2.70;;